createdAt,value
2017-03-02T00:00:24.713Z,90.13
2017-03-02T00:01:40.133Z,89.82
2017-03-02T00:02:24.741Z,90.05
2017-03-02T00:03:25.045Z,89.61
2017-03-02T00:04:23.966Z,89.39
2017-03-02T00:05:24.223Z,89.96
2017-03-02T00:06:25.242Z,89.94
2017-03-02T00:07:24.813Z,89.91
2017-03-02T00:08:25.476Z,89.97
2017-03-02T00:09:29.310Z,89.48
2017-03-02T00:10:25.396Z,89.50
2017-03-02T00:11:24.961Z,89.44
2017-03-02T00:12:24.404Z,89.87
2017-03-02T00:13:31.370Z,90.32
2017-03-02T00:14:29.516Z,89.87
2017-03-02T00:15:39.483Z,89.70
2017-03-02T00:16:29.675Z,89.54
2017-03-02T00:17:24.815Z,89.83
2017-03-02T00:18:24.789Z,89.92
2017-03-02T00:19:24.578Z,90.13
2017-03-02T00:20:24.922Z,89.98
2017-03-02T00:21:25.512Z,89.45
2017-03-02T00:22:34.219Z,89.73
2017-03-02T00:23:25.207Z,89.22
2017-03-02T00:24:33.888Z,89.39
2017-03-02T00:25:24.763Z,88.94
2017-03-02T00:26:27.608Z,89.22
2017-03-02T00:27:26.695Z,89.17
2017-03-02T00:28:30.078Z,89.34
2017-03-02T00:29:25.214Z,89.69
2017-03-02T00:30:24.810Z,89.20
2017-03-02T00:31:24.953Z,89.78
2017-03-02T00:32:25.113Z,90.29
2017-03-02T00:33:28.505Z,90.11
2017-03-02T00:34:29.550Z,90.13
2017-03-02T00:35:28.681Z,89.97
2017-03-02T00:36:28.971Z,89.98
2017-03-02T00:37:19.408Z,89.39
2017-03-02T00:38:29.005Z,89.82
2017-03-02T00:39:24.692Z,89.71
2017-03-02T00:40:34.742Z,89.67
2017-03-02T00:41:24.692Z,90.04
2017-03-02T00:42:25.084Z,90.19
2017-03-02T00:43:24.476Z,89.85
2017-03-02T00:44:24.739Z,90.35
2017-03-02T00:45:19.380Z,90.47
2017-03-02T00:46:25.032Z,90.46
2017-03-02T00:47:25.123Z,90.62
2017-03-02T00:48:24.671Z,90.19
2017-03-02T00:49:25.136Z,90.53
2017-03-02T00:50:24.760Z,90.89
2017-03-02T00:51:24.841Z,90.70
2017-03-02T00:52:24.550Z,90.69
2017-03-02T00:53:24.198Z,90.88
2017-03-02T00:54:29.544Z,91.56
2017-03-02T00:55:28.286Z,91.52
2017-03-02T00:56:42.061Z,91.83
2017-03-02T00:57:24.787Z,91.94
2017-03-02T00:58:18.847Z,92.24
2017-03-02T00:59:25.013Z,92.19
2017-03-02T01:00:24.389Z,92.75
2017-03-02T01:01:24.942Z,91.97
2017-03-02T01:02:19.536Z,91.96
2017-03-02T01:03:19.582Z,91.91
2017-03-02T01:04:29.627Z,91.87
2017-03-02T01:05:19.269Z,92.44
2017-03-02T01:06:25.568Z,92.83
2017-03-02T01:07:28.397Z,93.20
2017-03-02T01:08:29.621Z,93.19
2017-03-02T01:09:24.868Z,92.58
2017-03-02T01:10:28.676Z,92.95
2017-03-02T01:11:26.105Z,92.96
2017-03-02T01:12:29.711Z,91.99
2017-03-02T01:13:25.042Z,92.82
2017-03-02T01:14:29.680Z,93.48
2017-03-02T01:15:33.385Z,93.90
2017-03-02T01:16:24.947Z,94.21
2017-03-02T01:17:24.414Z,94.33
2017-03-02T01:18:34.529Z,94.12
2017-03-02T01:19:25.079Z,94.51
2017-03-02T01:20:24.550Z,94.87
2017-03-02T01:21:30.956Z,94.78
2017-03-02T01:22:27.357Z,94.88
2017-03-02T01:23:24.739Z,95.27
2017-03-02T01:24:30.192Z,95.35
2017-03-02T01:44:28.696Z,94.45
2017-03-02T01:45:38.669Z,94.44
2017-03-02T01:46:40.092Z,94.00
2017-03-02T01:47:32.886Z,94.12
2017-03-02T01:48:39.419Z,94.47
2017-03-02T01:49:37.348Z,94.28
2017-03-02T01:50:30.986Z,93.94
2017-03-02T01:51:50.680Z,93.75
2017-03-02T01:52:45.230Z,93.56
2017-03-02T01:53:33.912Z,92.89
2017-03-02T01:54:25.640Z,92.94
2017-03-02T01:55:33.662Z,92.96
2017-03-02T01:56:28.883Z,93.06
2017-03-02T01:57:26.277Z,92.22
2017-03-02T01:58:26.587Z,92.50
2017-03-02T01:59:25.407Z,92.42
2017-03-02T02:00:28.675Z,92.69
2017-03-02T02:01:25.556Z,91.82
2017-03-02T02:02:25.447Z,92.20
2017-03-02T02:03:31.675Z,91.90
2017-03-02T02:04:26.599Z,92.77
2017-03-02T02:05:25.837Z,91.21
2017-03-02T02:06:24.966Z,91.72
2017-03-02T02:07:33.789Z,91.87
2017-03-02T02:08:26.649Z,92.02
2017-03-02T02:09:28.879Z,91.18
2017-03-02T02:10:26.683Z,91.45
2017-03-02T02:11:32.057Z,91.47
2017-03-02T02:12:25.447Z,91.40
2017-03-02T02:13:35.710Z,91.07
2017-03-02T02:14:25.722Z,90.86
2017-03-02T02:15:31.419Z,91.02
2017-03-02T02:17:52.780Z,91.12
2017-03-02T02:18:50.725Z,90.85
2017-03-02T02:23:32.713Z,90.81
2017-03-02T02:24:41.111Z,90.79
2017-03-02T02:25:32.568Z,91.52
2017-03-02T02:26:36.719Z,91.61
2017-03-02T02:30:25.706Z,90.43
2017-03-02T02:31:26.259Z,90.64
2017-03-02T02:32:25.541Z,90.76
2017-03-02T02:33:31.386Z,90.55
2017-03-02T02:34:30.915Z,90.79
2017-03-02T02:35:33.948Z,90.70
2017-03-02T02:36:37.410Z,90.62
2017-03-02T02:37:28.687Z,91.01
2017-03-02T02:38:25.564Z,90.18
2017-03-02T02:39:25.987Z,90.22
2017-03-02T02:40:26.736Z,90.60
2017-03-02T02:41:25.295Z,90.81
2017-03-02T02:42:26.833Z,91.13
2017-03-02T02:43:25.443Z,90.96
2017-03-02T02:44:25.546Z,91.05
2017-03-02T02:45:25.531Z,90.52
2017-03-02T02:46:20.164Z,90.94
2017-03-02T02:47:25.442Z,90.59
2017-03-02T02:48:25.737Z,91.00
2017-03-02T02:49:26.873Z,90.06
2017-03-02T02:53:37.850Z,91.59
2017-03-02T02:54:55.607Z,91.39
2017-03-02T02:55:39.146Z,91.09
2017-03-02T02:56:48.016Z,91.37
2017-03-02T02:57:35.373Z,91.14
2017-03-02T02:58:48.622Z,90.63
2017-03-02T02:59:42.746Z,91.08
2017-03-02T03:00:44.865Z,91.97
2017-03-02T03:01:48.811Z,91.85
2017-03-02T03:02:50.612Z,91.85
2017-03-02T03:03:33.911Z,91.82
2017-03-02T03:04:25.356Z,92.38
2017-03-02T03:05:26.155Z,91.96
2017-03-02T03:06:50.783Z,91.57
2017-03-02T03:07:50.167Z,91.93
2017-03-02T03:08:53.750Z,91.67
2017-03-02T03:09:49.515Z,91.82
2017-03-02T03:11:38.920Z,91.32
2017-03-02T03:12:48.263Z,91.41
2017-03-02T03:13:43.527Z,91.55
2017-03-02T03:14:51.153Z,91.22
2017-03-02T03:15:25.735Z,91.43
2017-03-02T03:16:26.572Z,91.84
2017-03-02T03:17:28.887Z,91.96
2017-03-02T03:18:25.380Z,92.13
2017-03-02T03:19:30.660Z,92.06
2017-03-02T03:20:26.611Z,91.78
2017-03-02T03:21:25.548Z,91.43
2017-03-02T03:22:31.738Z,90.50
2017-03-02T03:23:31.735Z,91.67
2017-03-02T03:24:25.844Z,91.55
2017-03-02T03:25:52.648Z,91.97
2017-03-02T03:26:47.225Z,91.42
2017-03-02T03:27:51.149Z,91.04
2017-03-02T03:28:47.903Z,91.36
2017-03-02T03:29:37.737Z,92.00
2017-03-02T03:30:45.229Z,92.04
2017-03-02T03:31:26.468Z,92.17
2017-03-02T03:32:27.602Z,92.32
2017-03-02T03:33:27.026Z,91.77
2017-03-02T03:34:30.540Z,92.40
2017-03-02T03:35:26.041Z,91.26
2017-03-02T03:36:46.039Z,90.62
2017-03-02T03:37:49.269Z,91.21
2017-03-02T03:38:39.588Z,91.51
2017-03-02T03:39:26.487Z,91.36
2017-03-02T03:40:25.355Z,91.26
2017-03-02T03:41:33.263Z,91.12
2017-03-02T03:42:26.593Z,90.70
2017-03-02T03:43:36.795Z,91.48
2017-03-02T03:44:32.276Z,91.82
2017-03-02T03:45:26.000Z,91.29
2017-03-02T03:46:32.577Z,91.17
2017-03-02T03:47:25.513Z,91.12
2017-03-02T03:48:26.938Z,91.13
2017-03-02T03:49:27.060Z,91.06
2017-03-02T03:50:31.280Z,90.97
2017-03-02T03:51:26.601Z,91.05
2017-03-02T03:52:25.340Z,91.14
2017-03-02T03:53:37.579Z,91.24
2017-03-02T03:54:33.727Z,90.81
2017-03-02T03:55:25.370Z,90.59
2017-03-02T03:57:27.189Z,90.32
2017-03-02T03:58:27.565Z,90.05
2017-03-02T03:59:38.129Z,89.04
2017-03-02T04:00:25.861Z,90.18
2017-03-02T04:01:25.952Z,90.31
2017-03-02T04:02:26.392Z,90.04
2017-03-02T04:03:26.293Z,90.52
2017-03-02T04:04:29.664Z,89.91
2017-03-02T04:09:31.464Z,89.19
2017-03-02T04:12:49.873Z,89.44
2017-03-02T04:15:24.927Z,89.70
2017-03-02T04:16:26.970Z,90.70
2017-03-02T04:19:48.483Z,89.84
2017-03-02T04:20:47.045Z,90.63
2017-03-02T04:21:28.945Z,89.35
2017-03-02T04:22:37.831Z,89.83
2017-03-02T04:23:38.903Z,90.60
2017-03-02T04:26:21.687Z,90.38
2017-03-02T04:26:44.651Z,90.27
2017-03-02T04:27:45.302Z,90.76
2017-03-02T04:28:51.316Z,90.83
2017-03-02T04:29:45.292Z,89.98
2017-03-02T04:31:31.406Z,90.18
2017-03-02T04:34:39.168Z,90.32
2017-03-02T04:35:29.273Z,90.71
2017-03-02T04:36:26.183Z,91.20
2017-03-02T04:37:29.445Z,90.81
2017-03-02T04:38:27.541Z,89.89
2017-03-02T04:39:29.179Z,90.08
2017-03-02T04:40:34.222Z,90.04
2017-03-02T04:41:27.072Z,90.91
2017-03-02T04:42:29.421Z,90.40
2017-03-02T04:43:31.139Z,90.12
2017-03-02T04:44:33.859Z,90.82
2017-03-02T04:45:36.101Z,90.69
2017-03-02T04:46:47.719Z,90.58
2017-03-02T04:47:26.323Z,90.44
2017-03-02T04:48:26.968Z,91.11
2017-03-02T04:49:24.394Z,91.17
2017-03-02T04:50:26.111Z,90.58
2017-03-02T04:51:37.217Z,91.04
2017-03-02T04:52:31.212Z,90.26
2017-03-02T04:53:37.339Z,90.75
2017-03-02T04:54:41.950Z,91.03
2017-03-02T04:55:37.081Z,90.87
2017-03-02T04:56:30.950Z,90.00
2017-03-02T04:57:36.945Z,90.72
2017-03-02T04:58:28.863Z,90.56
2017-03-02T04:59:32.637Z,90.35
2017-03-02T05:00:26.555Z,91.03
2017-03-02T05:01:27.143Z,90.25
2017-03-02T05:02:37.319Z,90.14
2017-03-02T05:03:26.185Z,90.76
2017-03-02T05:04:26.191Z,90.41
2017-03-02T05:05:28.274Z,90.29
2017-03-02T05:06:26.213Z,89.86
2017-03-02T05:07:31.833Z,89.83
2017-03-02T05:08:27.262Z,89.32
2017-03-02T05:09:31.151Z,89.38
2017-03-02T05:10:26.081Z,89.18
2017-03-02T05:11:27.191Z,89.08
2017-03-02T05:12:26.217Z,89.72
2017-03-02T05:13:26.200Z,88.63
2017-03-02T05:14:26.514Z,88.98
2017-03-02T05:15:26.839Z,88.96
2017-03-02T05:16:26.454Z,89.69
2017-03-02T05:17:27.562Z,89.37
2017-03-02T05:18:21.329Z,87.94
2017-03-02T05:19:26.217Z,88.57
2017-03-02T05:20:26.345Z,88.36
2017-03-02T05:21:26.045Z,87.66
2017-03-02T05:22:34.261Z,87.43
2017-03-02T05:23:42.353Z,87.30
2017-03-02T05:24:32.110Z,87.97
2017-03-02T05:30:24.401Z,87.72
2017-03-02T05:35:42.122Z,87.79
2017-03-02T05:36:21.246Z,87.87
2017-03-02T05:37:28.719Z,87.21
2017-03-02T05:38:26.709Z,87.39
2017-03-02T05:39:26.525Z,86.57
2017-03-02T05:46:33.213Z,86.84
2017-03-02T05:53:31.728Z,87.84
2017-03-02T05:54:27.115Z,88.01
2017-03-02T05:55:26.596Z,88.02
2017-03-02T05:56:26.751Z,88.01
2017-03-02T06:03:39.301Z,86.77
2017-03-02T06:04:43.739Z,86.80
2017-03-02T06:05:31.708Z,87.33
2017-03-02T06:06:33.804Z,87.75
2017-03-02T06:07:34.787Z,87.56
2017-03-02T06:08:28.521Z,87.36
2017-03-02T06:09:54.746Z,87.65
2017-03-02T06:10:54.482Z,86.97
2017-03-02T06:11:50.490Z,87.50
2017-03-02T06:12:37.879Z,87.54
2017-03-02T06:13:27.544Z,87.84
2017-03-02T06:14:29.177Z,87.65
2017-03-02T06:15:22.272Z,87.20
2017-03-02T06:16:31.723Z,88.01
2017-03-02T06:17:37.493Z,87.18
2017-03-02T06:18:36.973Z,87.76
2017-03-02T06:19:37.495Z,87.97
2017-03-02T06:20:36.950Z,87.63
2017-03-02T06:21:33.224Z,87.68
2017-03-02T06:22:26.113Z,87.38
2017-03-02T06:23:26.694Z,87.04
2017-03-02T06:26:26.638Z,86.62
2017-03-02T06:27:32.750Z,86.94
2017-03-02T06:33:33.088Z,86.53
2017-03-02T06:34:27.948Z,85.89
2017-03-02T06:35:22.352Z,86.57
2017-03-02T06:36:38.024Z,86.31
2017-03-02T06:37:26.943Z,85.83
2017-03-02T06:38:27.958Z,85.22
2017-03-02T06:39:27.911Z,85.62
2017-03-02T06:40:32.283Z,85.39
2017-03-02T06:41:37.502Z,84.68
2017-03-02T06:42:27.687Z,84.72
2017-03-02T06:44:27.973Z,85.29
2017-03-02T06:45:31.009Z,84.76
2017-03-02T06:48:28.018Z,84.94
2017-03-02T06:56:26.838Z,83.49
2017-03-02T06:57:27.350Z,83.50
2017-03-02T06:58:37.024Z,83.48
2017-03-02T06:59:36.733Z,83.39
2017-03-02T07:00:33.311Z,83.90
2017-03-02T07:02:55.802Z,83.52
2017-03-02T07:03:51.212Z,83.03
2017-03-02T07:04:51.086Z,82.94
2017-03-02T07:05:47.277Z,82.81
2017-03-02T07:06:49.176Z,83.12
2017-03-02T07:07:47.508Z,83.21
2017-03-02T07:08:50.183Z,83.09
2017-03-02T07:09:49.292Z,82.62
2017-03-02T07:10:40.556Z,82.89
2017-03-02T07:11:24.611Z,82.72
2017-03-02T07:12:30.003Z,82.96
2017-03-02T07:13:27.411Z,82.96
2017-03-02T07:14:37.331Z,82.34
2017-03-02T07:17:43.735Z,82.57
2017-03-02T07:18:29.639Z,83.39
2017-03-02T07:19:49.220Z,83.98
2017-03-02T07:20:23.342Z,84.71
2017-03-02T07:21:49.352Z,85.59
2017-03-02T07:22:29.139Z,85.59
2017-03-02T07:23:33.242Z,86.07
2017-03-02T07:24:23.824Z,85.15
2017-03-02T07:25:29.322Z,86.11
2017-03-02T07:26:27.014Z,86.24
2017-03-02T07:27:27.098Z,86.68
2017-03-02T07:28:36.735Z,86.68
2017-03-02T07:29:47.359Z,86.47
2017-03-02T07:30:36.423Z,86.94
2017-03-02T07:31:26.888Z,86.68
2017-03-02T07:32:27.123Z,86.72
2017-03-02T07:33:43.299Z,86.51
2017-03-02T07:34:32.353Z,86.95
2017-03-02T07:35:38.087Z,85.65
2017-03-02T07:36:28.831Z,86.46
2017-03-02T07:37:28.017Z,86.68
2017-03-02T07:38:27.128Z,86.13
2017-03-02T07:39:28.395Z,86.22
2017-03-02T07:40:28.474Z,85.57
2017-03-02T07:41:48.175Z,85.20
2017-03-02T07:42:41.675Z,84.77
2017-03-02T07:43:32.825Z,85.33
2017-03-02T07:44:31.702Z,86.28
2017-03-02T07:45:36.515Z,86.63
2017-03-02T07:46:36.555Z,87.21
2017-03-02T07:47:38.220Z,87.12
2017-03-02T07:48:29.415Z,90.41
2017-03-02T07:49:27.840Z,94.99
2017-03-02T07:50:30.950Z,94.78
2017-03-02T07:51:33.186Z,93.95
2017-03-02T07:52:26.926Z,93.76
2017-03-02T07:53:32.011Z,91.51
2017-03-02T07:54:32.479Z,92.31
2017-03-02T07:55:28.787Z,90.98
2017-03-02T07:56:33.106Z,91.42
2017-03-02T07:57:24.501Z,90.09
2017-03-02T07:58:29.065Z,91.79
2017-03-02T07:59:27.185Z,91.42
2017-03-02T08:00:23.251Z,90.68
2017-03-02T08:01:37.391Z,91.74
2017-03-02T08:02:27.146Z,91.38
2017-03-02T08:03:28.136Z,91.00
2017-03-02T08:04:28.167Z,92.40
2017-03-02T08:05:27.250Z,93.14
2017-03-02T08:06:33.216Z,91.61
2017-03-02T08:07:27.339Z,90.79
2017-03-02T08:09:27.189Z,87.04
2017-03-02T08:10:27.223Z,85.17
2017-03-02T08:11:20.366Z,84.35
2017-03-02T08:12:29.278Z,82.46
2017-03-02T08:13:32.486Z,79.14
2017-03-02T08:14:27.199Z,79.49
2017-03-02T08:15:25.612Z,80.15
2017-03-02T08:16:28.510Z,78.71
2017-03-02T08:17:33.035Z,77.92
2017-03-02T08:18:27.236Z,78.16
2017-03-02T08:19:27.209Z,77.97
2017-03-02T08:20:27.227Z,77.71
2017-03-02T08:21:25.325Z,76.32
2017-03-02T08:22:22.615Z,75.44
2017-03-02T08:23:28.209Z,75.87
2017-03-02T08:24:25.571Z,75.82
2017-03-02T08:25:25.194Z,76.81
2017-03-02T08:26:37.957Z,77.66
2017-03-02T08:27:28.055Z,75.53
2017-03-02T08:28:28.133Z,73.29
2017-03-02T08:29:27.275Z,72.94
2017-03-02T08:30:27.235Z,71.90
2017-03-02T08:31:27.215Z,71.63
2017-03-02T08:32:27.221Z,72.35
2017-03-02T08:33:27.227Z,71.61
2017-03-02T08:34:36.740Z,70.62
2017-03-02T08:35:27.219Z,72.14
2017-03-02T08:36:31.622Z,71.45
2017-03-02T08:37:37.195Z,70.71
2017-03-02T08:38:32.095Z,70.94
2017-03-02T08:39:38.736Z,68.82
2017-03-02T08:40:33.855Z,68.41
2017-03-02T08:41:43.436Z,67.95
2017-03-02T08:42:32.245Z,68.42
2017-03-02T08:43:26.980Z,68.16
2017-03-02T08:44:27.232Z,67.65
2017-03-02T08:45:32.320Z,66.54
2017-03-02T08:46:32.440Z,65.93
2017-03-02T08:47:37.586Z,66.14
2017-03-02T08:48:32.432Z,66.82
2017-03-02T08:49:27.155Z,66.26
2017-03-02T08:50:27.355Z,67.65
2017-03-02T08:51:22.296Z,66.44
2017-03-02T08:52:33.376Z,65.22
2017-03-02T08:53:27.218Z,63.24
2017-03-02T08:54:27.200Z,63.37
2017-03-02T08:55:29.645Z,63.58
2017-03-02T08:56:22.439Z,63.37
2017-03-02T08:57:26.892Z,63.02
2017-03-02T09:00:28.159Z,62.70
2017-03-02T09:01:27.176Z,62.00
2017-03-02T09:02:27.015Z,62.21
2017-03-02T09:03:32.099Z,61.38
2017-03-02T09:04:25.482Z,61.98
2017-03-02T09:05:30.259Z,61.79
2017-03-02T09:06:35.265Z,60.83
2017-03-02T09:07:27.106Z,60.77
2017-03-02T09:08:24.137Z,61.23
2017-03-02T09:09:28.215Z,61.11
2017-03-02T09:10:36.991Z,61.12
2017-03-02T09:11:32.689Z,59.25
2017-03-02T09:12:24.734Z,60.11
2017-03-02T09:13:27.256Z,60.02
2017-03-02T09:14:27.286Z,58.61
2017-03-02T09:15:25.113Z,58.95
2017-03-02T09:16:32.277Z,59.90
2017-03-02T09:17:28.617Z,58.89
2017-03-02T09:18:32.992Z,60.07
2017-03-02T09:19:23.317Z,59.05
2017-03-02T09:20:38.007Z,59.07
2017-03-02T09:21:24.589Z,57.99
2017-03-02T09:22:21.598Z,58.56
2017-03-02T09:23:32.592Z,58.49
2017-03-02T09:24:21.699Z,58.45
2017-03-02T09:25:25.150Z,59.37
2017-03-02T09:26:27.295Z,58.14
2017-03-02T09:27:27.189Z,58.01
2017-03-02T09:28:26.779Z,57.95
2017-03-02T09:29:16.665Z,57.28
2017-03-02T09:30:27.310Z,57.93
2017-03-02T09:31:27.910Z,57.95
2017-03-02T09:32:45.555Z,58.05
2017-03-02T09:33:27.307Z,57.67
2017-03-02T09:34:28.776Z,58.27
2017-03-02T09:35:33.785Z,57.96
2017-03-02T09:36:33.687Z,56.39
2017-03-02T09:37:32.543Z,56.26
2017-03-02T09:38:28.336Z,56.90
2017-03-02T09:39:27.408Z,56.22
2017-03-02T09:40:27.373Z,55.33
2017-03-02T09:41:27.338Z,55.49
2017-03-02T09:42:38.532Z,54.87
2017-03-02T09:43:28.497Z,55.23
2017-03-02T09:44:27.957Z,56.91
2017-03-02T09:45:25.064Z,56.51
2017-03-02T09:46:28.536Z,56.48
2017-03-02T09:47:37.379Z,55.38
2017-03-02T09:48:32.566Z,54.80
2017-03-02T09:49:27.275Z,54.63
2017-03-02T09:50:34.995Z,54.75
2017-03-02T09:51:37.296Z,55.15
2017-03-02T09:52:28.371Z,55.63
2017-03-02T09:53:31.957Z,53.04
2017-03-02T09:54:42.607Z,53.99
2017-03-02T09:55:28.401Z,53.95
2017-03-02T09:56:28.141Z,53.44
2017-03-02T09:57:21.798Z,53.41
2017-03-02T09:58:27.368Z,53.05
2017-03-02T09:59:27.285Z,52.28
2017-03-02T10:00:21.902Z,51.60
2017-03-02T10:01:29.686Z,51.38
2017-03-02T10:02:32.566Z,51.18
2017-03-02T10:03:27.355Z,50.79
2017-03-02T10:04:27.410Z,50.66
2017-03-02T10:05:32.627Z,50.92
2017-03-02T10:06:22.717Z,49.66
2017-03-02T10:07:27.418Z,50.27
2017-03-02T10:08:27.539Z,49.26
2017-03-02T10:09:33.626Z,50.16
2017-03-02T10:10:33.371Z,49.53
2017-03-02T10:11:28.361Z,48.88
2017-03-02T10:12:27.509Z,48.47
2017-03-02T10:13:27.829Z,48.18
2017-03-02T10:14:37.349Z,47.83
2017-03-02T10:15:32.417Z,48.47
2017-03-02T10:16:32.529Z,49.32
2017-03-02T10:17:32.317Z,49.77
2017-03-02T10:18:32.301Z,50.13
2017-03-02T10:19:26.949Z,49.59
2017-03-02T10:20:37.163Z,49.37
2017-03-02T10:21:27.462Z,50.43
2017-03-02T10:22:22.603Z,51.14
2017-03-02T10:23:27.438Z,50.68
2017-03-02T10:24:27.687Z,50.04
2017-03-02T10:25:27.449Z,49.93
2017-03-02T10:26:32.565Z,49.80
2017-03-02T10:27:33.007Z,49.73
2017-03-02T10:28:30.081Z,49.67
2017-03-02T10:29:32.434Z,49.96
2017-03-02T10:30:27.465Z,51.28
2017-03-02T10:31:32.673Z,50.52
2017-03-02T10:32:27.438Z,51.17
2017-03-02T10:33:44.352Z,50.98
2017-03-02T10:34:37.600Z,50.86
2017-03-02T10:35:26.971Z,50.51
2017-03-02T10:36:27.412Z,50.54
2017-03-02T10:37:27.440Z,50.23
2017-03-02T10:38:30.022Z,49.81
2017-03-02T10:39:33.145Z,50.30
2017-03-02T10:40:27.137Z,50.56
2017-03-02T10:41:37.648Z,50.41
2017-03-02T10:42:32.387Z,50.11
2017-03-02T10:43:28.457Z,50.40
2017-03-02T10:44:27.441Z,49.45
2017-03-02T10:45:27.469Z,48.96
2017-03-02T10:46:54.584Z,48.59
2017-03-02T10:47:32.364Z,49.30
2017-03-02T10:48:28.488Z,49.27
2017-03-02T10:49:24.593Z,49.86
2017-03-02T10:50:23.170Z,50.58
2017-03-02T10:51:29.714Z,50.53
2017-03-02T10:52:27.488Z,50.81
2017-03-02T10:53:28.441Z,50.54
2017-03-02T10:54:28.579Z,51.18
2017-03-02T10:55:28.492Z,50.13
2017-03-02T10:56:27.988Z,50.51
2017-03-02T10:57:28.476Z,50.27
2017-03-02T10:58:33.196Z,50.85
2017-03-02T10:59:27.098Z,49.13
2017-03-02T11:00:22.692Z,49.46
2017-03-02T11:01:27.376Z,48.28
2017-03-02T11:02:25.371Z,47.44
2017-03-02T11:03:27.822Z,47.84
2017-03-02T11:04:28.517Z,47.24
2017-03-02T11:05:25.385Z,45.92
2017-03-02T11:06:21.819Z,45.34
2017-03-02T11:07:32.453Z,46.50
2017-03-02T11:08:32.578Z,46.73
2017-03-02T11:09:27.633Z,47.34
2017-03-02T11:10:22.181Z,48.47
2017-03-02T11:11:27.862Z,49.31
2017-03-02T11:12:26.510Z,48.56
2017-03-02T11:13:37.812Z,48.43
2017-03-02T11:14:38.117Z,48.58
2017-03-02T11:15:22.292Z,48.54
2017-03-02T11:16:29.469Z,48.05
2017-03-02T11:17:38.747Z,47.90
2017-03-02T11:18:32.081Z,47.12
2017-03-02T11:19:32.083Z,46.89
2017-03-02T11:20:32.560Z,46.44
2017-03-02T11:21:28.548Z,46.34
2017-03-02T11:22:25.650Z,47.01
2017-03-02T11:23:37.513Z,47.76
2017-03-02T11:24:27.595Z,47.85
2017-03-02T11:25:37.336Z,47.30
2017-03-02T11:26:32.517Z,47.66
2017-03-02T11:27:27.594Z,46.92
2017-03-02T11:28:27.616Z,47.96
2017-03-02T11:29:30.468Z,48.19
2017-03-02T11:30:27.329Z,49.28
2017-03-02T11:31:27.587Z,49.42
2017-03-02T11:32:27.587Z,49.11
2017-03-02T11:33:27.706Z,48.64
2017-03-02T11:34:27.432Z,49.68
2017-03-02T11:35:39.871Z,50.25
2017-03-02T11:36:48.742Z,51.66
2017-03-02T11:37:30.860Z,52.39
2017-03-02T11:38:37.138Z,52.45
2017-03-02T11:39:27.635Z,53.24
2017-03-02T11:40:34.407Z,52.56
2017-03-02T11:41:32.475Z,52.21
2017-03-02T11:42:32.662Z,52.16
2017-03-02T11:43:23.009Z,52.57
2017-03-02T11:44:32.614Z,51.66
2017-03-02T11:45:33.656Z,51.38
2017-03-02T11:46:28.252Z,51.17
2017-03-02T11:47:37.452Z,51.27
2017-03-02T11:48:27.317Z,51.00
2017-03-02T11:49:28.512Z,50.79
2017-03-02T11:50:32.589Z,51.63
2017-03-02T11:51:30.808Z,50.76
2017-03-02T11:53:37.541Z,47.91
2017-03-02T11:54:47.979Z,45.75
2017-03-02T11:55:28.775Z,44.30
2017-03-02T11:56:27.505Z,43.43
2017-03-02T11:57:32.649Z,44.91
2017-03-02T11:58:24.197Z,46.88
2017-03-02T11:59:28.309Z,48.01
2017-03-02T12:00:19.176Z,48.71
2017-03-02T12:01:27.496Z,48.98
2017-03-02T12:02:25.191Z,48.87
2017-03-02T12:03:37.136Z,48.54
2017-03-02T12:04:27.526Z,49.13
2017-03-02T12:05:28.219Z,50.17
2017-03-02T12:06:28.545Z,51.00
2017-03-02T12:07:33.904Z,51.17
2017-03-02T12:08:37.749Z,51.03
2017-03-02T12:09:37.738Z,51.27
2017-03-02T12:10:33.023Z,51.59
2017-03-02T12:11:24.115Z,51.55
2017-03-02T12:12:28.341Z,51.00
2017-03-02T12:13:33.383Z,49.57
2017-03-02T12:14:32.418Z,48.81
2017-03-02T12:15:37.889Z,48.60
2017-03-02T12:16:21.628Z,47.97
2017-03-02T12:17:29.567Z,48.39
2017-03-02T12:18:26.678Z,48.60
2017-03-02T12:19:30.045Z,48.18
2017-03-02T12:20:25.197Z,48.29
2017-03-02T12:21:29.498Z,48.37
2017-03-02T12:22:28.820Z,47.84
2017-03-02T12:23:27.668Z,47.52
2017-03-02T12:24:45.449Z,48.05
2017-03-02T12:25:27.607Z,47.73
2017-03-02T12:26:36.678Z,47.72
2017-03-02T12:27:38.486Z,47.31
2017-03-02T12:28:28.257Z,46.47
2017-03-02T12:29:27.819Z,46.06
2017-03-02T12:30:57.557Z,45.84
2017-03-02T12:31:27.690Z,46.02
2017-03-02T12:32:29.843Z,45.81
2017-03-02T12:33:33.946Z,45.77
2017-03-02T12:34:22.996Z,45.73
2017-03-02T12:37:27.901Z,44.41
2017-03-02T12:38:37.446Z,44.76
2017-03-02T12:39:32.968Z,45.10
2017-03-02T12:40:27.367Z,45.21
2017-03-02T12:41:28.820Z,45.17
2017-03-02T12:42:27.524Z,45.91
2017-03-02T12:43:20.266Z,46.55
2017-03-02T12:44:25.665Z,47.13
2017-03-02T12:45:27.691Z,47.87
2017-03-02T12:46:27.517Z,47.61
2017-03-02T12:47:32.304Z,47.66
2017-03-02T12:48:28.551Z,47.53
2017-03-02T12:49:27.671Z,47.35
2017-03-02T12:50:27.735Z,47.38
2017-03-02T12:51:27.838Z,48.00
2017-03-02T12:52:27.787Z,48.23
2017-03-02T12:53:27.689Z,48.29
2017-03-02T12:54:25.801Z,48.13
2017-03-02T12:55:33.214Z,48.49
2017-03-02T12:56:27.735Z,47.73
2017-03-02T12:57:40.033Z,48.68
2017-03-02T12:58:24.562Z,48.86
2017-03-02T12:59:27.534Z,49.19
2017-03-02T13:00:32.666Z,48.15
2017-03-02T13:01:33.533Z,47.12
2017-03-02T13:02:28.616Z,47.79
2017-03-02T13:03:27.712Z,47.82
2017-03-02T13:04:24.830Z,48.05
2017-03-02T13:05:27.704Z,48.37
2017-03-02T13:06:38.014Z,48.62
2017-03-02T13:09:28.899Z,47.32
2017-03-02T13:10:37.720Z,46.53
2017-03-02T13:11:27.545Z,47.60
2017-03-02T13:12:36.095Z,47.77
2017-03-02T13:14:28.246Z,47.16
2017-03-02T13:16:33.564Z,47.33
2017-03-02T13:17:35.543Z,47.09
2017-03-02T13:18:37.640Z,47.55
2017-03-02T13:21:53.253Z,47.09
2017-03-02T13:22:22.261Z,46.62
2017-03-02T13:24:23.674Z,45.93
2017-03-02T13:26:26.795Z,45.50
2017-03-02T13:27:18.189Z,44.70
2017-03-02T13:31:32.206Z,44.41
2017-03-02T13:32:31.525Z,44.61
2017-03-02T13:33:43.382Z,45.25
2017-03-02T13:34:37.522Z,44.83
2017-03-02T13:35:32.341Z,44.63
2017-03-02T13:36:27.914Z,44.28
2017-03-02T13:37:25.523Z,44.31
2017-03-02T13:39:38.015Z,44.00
2017-03-02T13:40:32.109Z,43.97
2017-03-02T13:41:28.232Z,43.73
2017-03-02T13:42:33.001Z,43.50
2017-03-02T13:43:23.259Z,42.28
2017-03-02T13:44:18.633Z,42.53
2017-03-02T13:45:28.846Z,41.49
2017-03-02T13:46:28.869Z,40.74
2017-03-02T13:47:25.015Z,41.26
2017-03-02T13:48:24.171Z,41.85
2017-03-02T13:49:29.636Z,43.43
2017-03-02T13:50:27.871Z,41.74
2017-03-02T13:51:32.468Z,42.63
2017-03-02T13:52:27.547Z,43.97
2017-03-02T13:53:27.862Z,44.74
2017-03-02T13:54:19.009Z,45.41
2017-03-02T13:55:27.731Z,45.47
2017-03-02T13:56:30.767Z,45.93
2017-03-02T13:57:27.809Z,45.43
2017-03-02T13:59:28.159Z,43.10
2017-03-02T14:00:28.505Z,43.71
2017-03-02T14:01:33.164Z,43.35
2017-03-02T14:02:25.224Z,43.37
2017-03-02T14:03:37.247Z,43.74
2017-03-02T14:04:33.591Z,44.28
2017-03-02T14:05:42.165Z,43.38
2017-03-02T14:06:34.330Z,43.84
2017-03-02T14:07:30.321Z,42.15
2017-03-02T14:08:33.488Z,36.89
2017-03-02T14:09:32.608Z,34.85
2017-03-02T14:10:30.217Z,34.09
2017-03-02T14:11:26.838Z,33.45
2017-03-02T14:12:31.284Z,33.46
2017-03-02T14:13:34.283Z,34.19
2017-03-02T14:14:26.191Z,34.87
2017-03-02T14:19:41.874Z,34.69
2017-03-02T14:20:38.620Z,36.03
2017-03-02T14:21:27.855Z,36.40
2017-03-02T14:24:27.912Z,41.27
2017-03-02T14:25:34.053Z,42.38
2017-03-02T14:26:34.642Z,41.30
2017-03-02T14:27:29.592Z,42.14
2017-03-02T14:28:29.797Z,40.27
2017-03-02T14:29:38.653Z,36.74
2017-03-02T14:30:32.754Z,37.27
2017-03-02T14:31:30.457Z,38.17
2017-03-02T14:32:30.371Z,37.84
2017-03-02T14:33:32.553Z,38.28
2017-03-02T14:34:31.607Z,38.98
2017-03-02T14:35:30.077Z,39.59
2017-03-02T14:36:32.869Z,39.63
2017-03-02T14:37:34.468Z,40.16
2017-03-02T14:38:28.672Z,41.31
2017-03-02T14:39:32.773Z,40.79
2017-03-02T14:40:23.612Z,40.83
2017-03-02T14:41:25.561Z,40.05
2017-03-02T14:42:50.216Z,40.07
2017-03-02T14:43:49.142Z,39.80
2017-03-02T14:44:49.033Z,40.13
2017-03-02T14:45:36.837Z,39.57
2017-03-02T14:46:35.126Z,39.23
2017-03-02T14:47:28.530Z,37.85
2017-03-02T14:48:26.397Z,37.47
2017-03-02T14:49:35.240Z,37.09
2017-03-02T14:50:31.354Z,35.76